createdAt,value
2023-04-16T00:02:00.860Z,28.70
2023-04-16T00:04:28.073Z,26.90
2023-04-16T00:06:55.353Z,26.60
2023-04-16T00:09:22.324Z,28.80
2023-04-16T00:11:49.242Z,24.83
2023-04-16T00:14:16.219Z,30.57
2023-04-16T00:16:43.269Z,27.63
2023-04-16T00:19:10.828Z,30.83
2023-04-16T00:21:38.206Z,26.10
2023-04-16T00:24:05.194Z,28.93
2023-04-16T00:26:32.144Z,26.60
2023-04-16T00:29:00.002Z,30.80
2023-04-16T00:31:32.318Z,31.50
2023-04-16T00:33:59.950Z,27.20
2023-04-16T00:36:27.838Z,28.53
2023-04-16T00:38:56.289Z,29.70
2023-04-16T00:41:23.630Z,34.33
2023-04-16T00:43:50.826Z,28.37
2023-04-16T00:46:19.730Z,30.03
2023-04-16T00:48:47.347Z,31.13
2023-04-16T00:51:15.267Z,38.07
2023-04-16T00:53:43.281Z,29.00
2023-04-16T00:56:10.459Z,28.57
2023-04-16T00:58:37.391Z,25.73
2023-04-16T01:01:04.481Z,31.27
2023-04-16T01:03:38.650Z,49.73
2023-04-16T01:06:09.483Z,32.10
2023-04-16T01:08:36.461Z,58.30
2023-04-16T01:11:04.185Z,34.03
2023-04-16T01:13:31.604Z,35.67
2023-04-16T01:15:58.561Z,31.27
2023-04-16T01:18:26.147Z,41.57
2023-04-16T01:20:53.082Z,40.07
2023-04-16T01:23:25.582Z,33.27
2023-04-16T01:25:52.609Z,31.73
2023-04-16T01:28:19.521Z,32.20
2023-04-16T01:30:46.566Z,35.20
2023-04-16T01:33:14.931Z,42.40
2023-04-16T01:35:41.992Z,29.93
2023-04-16T01:38:09.703Z,28.27
2023-04-16T01:40:37.916Z,70.17
2023-04-16T01:43:04.960Z,32.67
2023-04-16T01:45:33.634Z,29.60
2023-04-16T01:48:01.044Z,28.30
2023-04-16T01:50:29.618Z,36.80
2023-04-16T01:52:56.611Z,28.97
2023-04-16T01:55:23.505Z,26.97
2023-04-16T01:57:50.764Z,30.17
2023-04-16T02:00:17.764Z,27.23
2023-04-16T02:02:45.103Z,34.57
2023-04-16T02:05:12.090Z,29.10
2023-04-16T02:07:39.013Z,31.13
2023-04-16T02:10:07.118Z,25.13
2023-04-16T02:12:34.019Z,32.87
2023-04-16T02:15:00.915Z,36.53
2023-04-16T02:17:27.888Z,68.07
2023-04-16T02:19:54.863Z,27.17
2023-04-16T02:22:21.882Z,29.93
2023-04-16T02:24:50.664Z,29.90
2023-04-16T02:27:17.579Z,23.13
2023-04-16T02:29:44.504Z,22.33
2023-04-16T02:32:11.473Z,26.93
2023-04-16T02:34:40.234Z,21.30
2023-04-16T02:37:07.236Z,20.30
2023-04-16T02:39:34.167Z,21.60
2023-04-16T02:42:02.649Z,21.27
2023-04-16T02:44:29.661Z,21.33
2023-04-16T02:46:56.577Z,33.43
2023-04-16T02:49:23.488Z,36.80
2023-04-16T02:51:50.399Z,17.50
2023-04-16T02:54:17.292Z,67.83
2023-04-16T02:56:44.246Z,32.70
2023-04-16T02:59:11.349Z,20.10
2023-04-16T03:01:38.461Z,20.37
2023-04-16T03:04:05.607Z,15.60
2023-04-16T03:06:32.701Z,17.70
2023-04-16T03:08:59.647Z,42.17
2023-04-16T03:11:26.721Z,16.33
2023-04-16T03:13:53.800Z,16.40
2023-04-16T03:16:20.778Z,18.33
2023-04-16T03:18:47.710Z,16.97
2023-04-16T03:21:14.625Z,16.57
2023-04-16T03:23:41.584Z,16.63
2023-04-16T03:26:08.514Z,31.67
2023-04-16T03:28:37.707Z,18.27
2023-04-16T03:31:05.218Z,17.67
2023-04-16T03:33:32.126Z,18.90
2023-04-16T03:35:59.145Z,16.27
2023-04-16T03:38:26.593Z,17.10
2023-04-16T03:40:53.602Z,18.97
2023-04-16T03:43:20.611Z,20.80
2023-04-16T03:45:47.666Z,18.77
2023-04-16T03:48:15.840Z,66.97
2023-04-16T03:50:47.601Z,16.67
2023-04-16T03:53:15.047Z,17.90
2023-04-16T03:55:42.367Z,17.50
2023-04-16T03:58:09.846Z,27.30
2023-04-16T04:00:36.919Z,22.73
2023-04-16T04:03:04.250Z,19.70
2023-04-16T04:05:31.484Z,26.33
2023-04-16T04:07:58.552Z,21.70
2023-04-16T04:10:25.522Z,23.87
2023-04-16T04:12:52.461Z,22.83
2023-04-16T04:15:19.505Z,28.23
2023-04-16T04:17:46.539Z,23.83
2023-04-16T04:20:14.812Z,26.17
2023-04-16T04:22:41.848Z,30.80
2023-04-16T04:25:10.481Z,24.00
2023-04-16T04:27:37.530Z,25.90
2023-04-16T04:30:05.172Z,22.20
2023-04-16T04:32:32.178Z,24.63
2023-04-16T04:35:02.082Z,24.33
2023-04-16T04:37:29.448Z,24.67
2023-04-16T04:39:56.508Z,27.10
2023-04-16T04:42:23.453Z,26.20
2023-04-16T04:44:50.643Z,25.57
2023-04-16T04:47:17.549Z,25.23
2023-04-16T04:49:44.461Z,22.70
2023-04-16T04:52:11.824Z,20.87
2023-04-16T04:54:41.758Z,23.43
2023-04-16T04:57:08.751Z,24.20
2023-04-16T04:59:35.796Z,31.13
2023-04-16T05:02:03.397Z,21.83
2023-04-16T05:04:31.133Z,22.27
2023-04-16T05:06:58.092Z,19.63
2023-04-16T05:09:25.091Z,26.60
2023-04-16T05:11:52.091Z,24.30
2023-04-16T05:14:19.026Z,21.00
2023-04-16T05:16:46.402Z,20.70
2023-04-16T05:19:13.469Z,22.00
2023-04-16T05:21:40.570Z,19.77
2023-04-16T05:24:07.523Z,23.40
2023-04-16T05:26:34.513Z,20.93
2023-04-16T05:29:01.468Z,23.43
2023-04-16T05:31:28.530Z,25.17
2023-04-16T05:33:55.526Z,36.73
2023-04-16T05:36:22.998Z,22.97
2023-04-16T05:38:50.078Z,23.80
2023-04-16T05:41:17.070Z,30.43
2023-04-16T05:43:44.005Z,23.70
2023-04-16T05:46:11.247Z,24.37
2023-04-16T05:48:38.185Z,22.57
2023-04-16T05:51:05.271Z,22.70
2023-04-16T05:53:32.340Z,24.03
2023-04-16T05:55:59.257Z,25.50
2023-04-16T05:58:26.169Z,26.17
2023-04-16T06:00:53.175Z,22.63
2023-04-16T06:03:20.186Z,25.30
2023-04-16T06:05:47.128Z,25.20
2023-04-16T06:08:14.367Z,26.93
2023-04-16T06:10:41.288Z,26.40
2023-04-16T06:13:08.218Z,25.63
2023-04-16T06:15:35.117Z,24.53
2023-04-16T06:18:02.121Z,24.50
2023-04-16T06:20:29.240Z,23.37
2023-04-16T06:22:56.492Z,24.63
2023-04-16T06:25:23.455Z,23.07
2023-04-16T06:27:50.416Z,24.43
2023-04-16T06:30:17.466Z,20.93
2023-04-16T06:32:44.697Z,26.13
2023-04-16T06:35:11.781Z,37.57
2023-04-16T06:37:38.787Z,24.87
2023-04-16T06:40:06.182Z,25.07
2023-04-16T06:42:33.074Z,45.07
2023-04-16T06:45:00.036Z,24.93
2023-04-16T06:47:27.342Z,24.60
2023-04-16T06:49:57.248Z,30.80
2023-04-16T06:52:24.244Z,21.80
2023-04-16T06:54:51.189Z,24.33
2023-04-16T06:57:18.116Z,24.93
2023-04-16T06:59:45.081Z,38.63
2023-04-16T07:02:12.136Z,23.73
2023-04-16T07:04:39.095Z,28.13
2023-04-16T07:07:06.032Z,24.87
2023-04-16T07:09:33.061Z,26.73
2023-04-16T07:12:00.164Z,41.73
2023-04-16T07:14:27.298Z,22.50
2023-04-16T07:16:54.281Z,21.80
2023-04-16T07:19:21.229Z,20.80
2023-04-16T07:21:48.192Z,20.47
2023-04-16T07:24:15.658Z,24.00
2023-04-16T07:26:42.702Z,21.23
2023-04-16T07:29:09.876Z,19.53
2023-04-16T07:31:37.006Z,22.77
2023-04-16T07:34:04.019Z,27.43
2023-04-16T07:36:32.796Z,27.23
2023-04-16T07:38:59.753Z,21.93
2023-04-16T07:41:26.689Z,20.33
2023-04-16T07:43:53.590Z,20.47
2023-04-16T07:46:21.234Z,17.70
2023-04-16T07:48:48.200Z,21.30
2023-04-16T07:51:15.500Z,19.83
2023-04-16T07:53:45.144Z,18.53
2023-04-16T07:56:12.084Z,16.97
2023-04-16T07:58:38.993Z,15.97
2023-04-16T08:01:06.034Z,17.17
2023-04-16T08:03:33.293Z,19.87
2023-04-16T08:06:00.525Z,17.70
2023-04-16T08:08:27.901Z,15.57
2023-04-16T08:10:55.950Z,14.93
2023-04-16T08:13:23.974Z,38.13
2023-04-16T08:15:51.238Z,15.80
2023-04-16T08:18:22.304Z,16.23
2023-04-16T08:20:49.234Z,16.10
2023-04-16T08:23:16.205Z,14.77
2023-04-16T08:25:43.092Z,15.07
2023-04-16T08:28:10.036Z,14.97
2023-04-16T08:30:37.095Z,16.17
2023-04-16T08:33:04.085Z,14.73
2023-04-16T08:35:31.109Z,14.23
2023-04-16T08:38:00.568Z,16.40
2023-04-16T08:40:29.941Z,13.90
2023-04-16T08:42:59.305Z,15.10
2023-04-16T08:45:27.711Z,14.43
2023-04-16T08:47:54.692Z,15.10
2023-04-16T08:50:26.566Z,14.33
2023-04-16T08:53:03.049Z,24.90
2023-04-16T08:55:51.320Z,19.23
2023-04-16T08:58:22.790Z,12.37
2023-04-16T09:00:49.773Z,12.80
2023-04-16T09:03:16.942Z,14.77
2023-04-16T09:05:44.019Z,15.27
2023-04-16T09:08:11.177Z,13.73
2023-04-16T09:10:39.376Z,16.30
2023-04-16T09:13:08.254Z,14.50
2023-04-16T09:15:35.568Z,12.20
2023-04-16T09:18:02.594Z,12.47
2023-04-16T09:20:29.565Z,17.10
2023-04-16T09:22:57.043Z,12.20
2023-04-16T09:25:25.137Z,10.97
2023-04-16T09:27:52.326Z,11.43
2023-04-16T09:30:21.877Z,11.10
2023-04-16T09:32:49.452Z,10.63
2023-04-16T09:35:20.584Z,10.57
2023-04-16T09:37:57.916Z,13.70
2023-04-16T09:40:27.049Z,10.97
2023-04-16T09:42:57.737Z,10.87
2023-04-16T09:45:24.752Z,11.40
2023-04-16T09:47:51.880Z,12.97
2023-04-16T09:50:20.467Z,14.63
2023-04-16T09:52:53.958Z,13.20
2023-04-16T09:55:27.250Z,12.73
2023-04-16T09:58:01.152Z,20.83
2023-04-16T10:00:30.521Z,10.63
2023-04-16T10:03:05.650Z,11.53
2023-04-16T10:05:33.050Z,13.57
2023-04-16T10:08:01.608Z,10.07
2023-04-16T10:10:29.491Z,12.40
2023-04-16T10:12:56.776Z,10.53
2023-04-16T10:15:26.838Z,12.07
2023-04-16T10:17:54.434Z,9.37
2023-04-16T10:20:23.868Z,9.30
2023-04-16T10:22:50.959Z,8.90
2023-04-16T10:25:18.450Z,8.27
2023-04-16T10:27:45.931Z,9.30
2023-04-16T10:30:15.444Z,13.37
2023-04-16T10:32:42.747Z,9.30
2023-04-16T10:35:09.819Z,10.90
2023-04-16T10:37:37.586Z,8.73
2023-04-16T10:40:23.573Z,10.83
2023-04-16T10:43:08.807Z,9.50
2023-04-16T10:45:38.540Z,10.33
2023-04-16T10:48:08.689Z,10.20
2023-04-16T10:50:37.109Z,10.67
2023-04-16T10:53:22.796Z,12.93
2023-04-16T10:56:11.563Z,10.73
2023-04-16T10:58:38.591Z,11.23
2023-04-16T11:01:13.687Z,11.50
2023-04-16T11:03:46.514Z,11.13
2023-04-16T11:06:14.571Z,11.67
2023-04-16T11:08:54.024Z,11.70
2023-04-16T11:11:21.934Z,11.87
2023-04-16T11:13:48.990Z,14.37
2023-04-16T11:16:17.061Z,14.50
2023-04-16T11:18:51.001Z,13.87
2023-04-16T11:21:20.700Z,14.33
2023-04-16T11:23:53.107Z,13.80
2023-04-16T11:26:27.807Z,20.37
2023-04-16T11:28:56.747Z,14.60
2023-04-16T11:31:24.151Z,15.37
2023-04-16T11:33:51.164Z,19.93
2023-04-16T11:36:18.297Z,21.17
2023-04-16T11:38:45.773Z,17.53
2023-04-16T11:41:19.723Z,15.60
2023-04-16T11:43:46.612Z,17.90
2023-04-16T11:46:24.587Z,18.60
2023-04-16T11:48:55.667Z,21.07
2023-04-16T11:51:23.452Z,15.33
2023-04-16T11:53:53.025Z,15.40
2023-04-16T11:56:28.309Z,17.20
2023-04-16T11:59:13.239Z,16.77
2023-04-16T12:01:41.875Z,15.97
2023-04-16T12:04:09.678Z,16.23
2023-04-16T12:06:36.882Z,17.37
2023-04-16T12:09:23.704Z,17.03
2023-04-16T12:11:50.997Z,18.87
2023-04-16T12:14:18.735Z,18.27
2023-04-16T12:16:45.680Z,17.07
2023-04-16T12:19:13.567Z,26.67
2023-04-16T12:21:48.732Z,22.57
2023-04-16T12:24:20.554Z,20.87
2023-04-16T12:26:51.938Z,17.17
2023-04-16T12:29:27.447Z,16.37
2023-04-16T12:31:54.581Z,17.40
2023-04-16T12:34:21.904Z,23.47
2023-04-16T12:37:09.595Z,17.37
2023-04-16T12:39:36.519Z,15.17
2023-04-16T12:42:05.294Z,17.43
2023-04-16T12:44:32.273Z,18.20
2023-04-16T12:46:59.186Z,15.67
2023-04-16T12:49:26.200Z,16.10
2023-04-16T12:51:53.161Z,15.27
2023-04-16T12:54:20.195Z,20.40
2023-04-16T12:56:47.317Z,16.10
2023-04-16T12:59:14.235Z,17.97
2023-04-16T13:01:41.221Z,15.77
2023-04-16T13:04:09.277Z,16.20
2023-04-16T13:06:37.745Z,14.90
2023-04-16T13:09:04.768Z,22.43
2023-04-16T13:11:32.167Z,23.47
2023-04-16T13:13:59.313Z,17.30
2023-04-16T13:16:26.350Z,17.13
2023-04-16T13:18:53.402Z,14.43
2023-04-16T13:21:20.381Z,15.07
2023-04-16T13:23:47.353Z,14.27
2023-04-16T13:26:15.793Z,15.53
2023-04-16T13:28:42.756Z,13.87
2023-04-16T13:31:09.724Z,14.17
2023-04-16T13:33:36.723Z,13.73
2023-04-16T13:36:03.650Z,15.27
2023-04-16T13:38:30.891Z,13.47
2023-04-16T13:40:58.050Z,13.67
2023-04-16T13:43:24.974Z,13.77
2023-04-16T13:45:51.964Z,14.10
2023-04-16T13:48:19.001Z,16.53
2023-04-16T13:50:46.175Z,14.13
2023-04-16T13:53:13.174Z,12.70
2023-04-16T13:55:40.256Z,12.40
2023-04-16T13:58:07.251Z,18.97
2023-04-16T14:00:34.490Z,13.53
2023-04-16T14:03:01.698Z,13.30
2023-04-16T14:05:30.980Z,12.90
2023-04-16T14:07:57.897Z,15.43
2023-04-16T14:10:24.806Z,15.50
2023-04-16T14:12:52.742Z,13.67
2023-04-16T14:15:20.894Z,16.63
2023-04-16T14:17:47.823Z,13.47
2023-04-16T14:20:14.982Z,12.83
2023-04-16T14:22:44.049Z,11.90
2023-04-16T14:25:11.023Z,13.00
2023-04-16T14:27:38.259Z,13.07
2023-04-16T14:30:06.272Z,18.33
2023-04-16T14:32:33.274Z,13.00
2023-04-16T14:35:00.452Z,14.17
2023-04-16T14:37:27.891Z,17.67
2023-04-16T14:39:54.917Z,12.50
2023-04-16T14:42:22.722Z,10.47
2023-04-16T14:44:49.706Z,10.33
2023-04-16T14:47:16.850Z,11.27
2023-04-16T14:49:43.744Z,10.90
2023-04-16T14:52:10.722Z,11.70
2023-04-16T14:54:37.702Z,10.10
2023-04-16T14:57:04.625Z,12.57
2023-04-16T14:59:32.315Z,11.37
2023-04-16T15:01:59.414Z,10.07
2023-04-16T15:04:26.556Z,11.73
2023-04-16T15:06:55.657Z,10.27
2023-04-16T15:09:28.320Z,9.83
2023-04-16T15:11:55.271Z,10.40
2023-04-16T15:14:22.161Z,11.03
2023-04-16T15:16:49.164Z,32.10
2023-04-16T15:19:16.189Z,24.30
2023-04-16T15:21:43.630Z,14.00
2023-04-16T15:24:10.920Z,11.33
2023-04-16T15:26:38.261Z,12.20
2023-04-16T15:29:05.223Z,10.23
2023-04-16T15:31:32.525Z,8.97
2023-04-16T15:34:00.422Z,9.37
2023-04-16T15:36:27.342Z,8.20
2023-04-16T15:38:54.316Z,9.10
2023-04-16T15:41:21.684Z,8.83
2023-04-16T15:43:48.566Z,9.30
2023-04-16T15:46:15.602Z,9.70
2023-04-16T15:48:42.561Z,9.27
2023-04-16T15:51:10.532Z,9.23
2023-04-16T15:53:37.510Z,12.87
2023-04-16T15:56:05.471Z,9.33
2023-04-16T15:58:32.421Z,10.37
2023-04-16T16:00:59.757Z,12.17
2023-04-16T16:03:27.223Z,10.93
2023-04-16T16:05:54.362Z,18.80
2023-04-16T16:08:21.313Z,11.90
2023-04-16T16:10:48.663Z,12.70
2023-04-16T16:13:18.099Z,25.07
2023-04-16T16:15:45.829Z,13.30
2023-04-16T16:18:12.765Z,12.53
2023-04-16T16:20:40.489Z,13.30
2023-04-16T16:23:07.708Z,12.07
2023-04-16T16:25:34.711Z,13.30
2023-04-16T16:28:03.000Z,13.80
2023-04-16T16:30:32.380Z,14.13
2023-04-16T16:32:59.328Z,14.03
2023-04-16T16:35:26.245Z,14.50
2023-04-16T16:37:55.730Z,14.10
2023-04-16T16:40:23.346Z,12.70
2023-04-16T16:42:50.301Z,14.77
2023-04-16T16:45:17.377Z,14.53
2023-04-16T16:47:44.382Z,14.33
2023-04-16T16:50:11.784Z,15.50
2023-04-16T16:52:38.956Z,15.60
2023-04-16T16:55:08.656Z,16.83
2023-04-16T16:57:35.764Z,17.37
2023-04-16T17:00:04.202Z,18.83
2023-04-16T17:02:31.214Z,16.90
2023-04-16T17:04:59.053Z,16.70
2023-04-16T17:07:26.766Z,17.40
2023-04-16T17:09:53.780Z,17.53
2023-04-16T17:12:20.719Z,17.73
2023-04-16T17:14:50.400Z,15.43
2023-04-16T17:17:17.477Z,18.23
2023-04-16T17:19:44.506Z,16.00
2023-04-16T17:22:11.850Z,16.73
2023-04-16T17:24:39.047Z,17.63
2023-04-16T17:27:06.232Z,17.73
2023-04-16T17:29:33.785Z,17.80
2023-04-16T17:32:00.972Z,17.23
2023-04-16T17:34:28.102Z,20.50
2023-04-16T17:36:55.231Z,17.87
2023-04-16T17:39:22.125Z,17.90
2023-04-16T17:41:54.160Z,17.97
2023-04-16T17:44:22.975Z,17.97
2023-04-16T17:46:50.164Z,19.50
2023-04-16T17:49:17.061Z,19.37
2023-04-16T17:51:44.629Z,19.17
2023-04-16T17:54:11.959Z,18.30
2023-04-16T17:56:39.832Z,19.53
2023-04-16T17:59:06.887Z,16.67
2023-04-16T18:01:34.212Z,17.03
2023-04-16T18:04:01.422Z,15.83
2023-04-16T18:06:28.509Z,18.93
2023-04-16T18:08:55.781Z,16.67
2023-04-16T18:11:22.780Z,17.83
2023-04-16T18:13:49.762Z,15.97
2023-04-16T18:16:17.862Z,19.03
2023-04-16T18:18:45.081Z,18.83
2023-04-16T18:21:12.304Z,17.23
2023-04-16T18:23:39.238Z,16.90
2023-04-16T18:26:08.487Z,16.37
2023-04-16T18:28:36.216Z,17.27
2023-04-16T18:31:05.575Z,18.10
2023-04-16T18:36:02.419Z,18.63
2023-04-16T18:38:31.234Z,18.77
2023-04-16T18:40:58.494Z,23.37
2023-04-16T18:43:25.517Z,21.90
2023-04-16T18:45:52.548Z,21.63
2023-04-16T18:48:19.489Z,21.17
2023-04-16T18:50:46.502Z,20.00
2023-04-16T18:53:14.145Z,22.53
2023-04-16T18:55:41.093Z,20.73
2023-04-16T18:58:08.871Z,21.27
2023-04-16T19:00:35.882Z,19.73
2023-04-16T19:03:07.035Z,19.53
2023-04-16T19:05:34.263Z,19.33
2023-04-16T19:08:01.330Z,18.40
2023-04-16T19:10:28.511Z,18.80
2023-04-16T19:12:58.721Z,19.97
2023-04-16T19:15:25.915Z,19.77
2023-04-16T19:17:52.856Z,19.70
2023-04-16T19:20:20.143Z,22.33
2023-04-16T19:22:47.307Z,18.70
2023-04-16T19:25:14.196Z,18.63
2023-04-16T19:27:41.440Z,17.10
2023-04-16T19:30:08.910Z,18.87
2023-04-16T19:32:36.390Z,16.83
2023-04-16T19:35:04.356Z,15.30
2023-04-16T19:37:31.260Z,25.03
2023-04-16T19:39:59.460Z,18.20
2023-04-16T19:42:26.383Z,18.73
2023-04-16T19:44:53.308Z,24.07
2023-04-16T19:47:20.193Z,20.93
2023-04-16T19:49:47.274Z,21.43
2023-04-16T19:52:14.731Z,20.43
2023-04-16T19:54:41.997Z,19.17
2023-04-16T19:57:09.097Z,20.03
2023-04-16T19:59:36.137Z,18.13
2023-04-16T20:02:03.110Z,18.47
2023-04-16T20:04:30.087Z,18.83
2023-04-16T20:06:57.191Z,23.23
2023-04-16T20:09:25.283Z,20.83
2023-04-16T20:11:52.287Z,21.33
2023-04-16T20:14:19.193Z,18.83
2023-04-16T20:16:46.159Z,22.13
2023-04-16T20:19:17.092Z,20.97
2023-04-16T20:21:45.430Z,16.57
2023-04-16T20:24:12.479Z,15.77
2023-04-16T20:26:39.459Z,16.03
2023-04-16T20:29:06.447Z,19.43
2023-04-16T20:31:33.423Z,16.77
2023-04-16T20:34:00.576Z,18.77
2023-04-16T20:36:27.846Z,18.07
2023-04-16T20:38:54.883Z,20.20
2023-04-16T20:41:22.450Z,21.13
2023-04-16T20:43:50.201Z,30.10
2023-04-16T20:46:17.589Z,23.30
2023-04-16T20:48:44.629Z,25.13
2023-04-16T20:51:11.580Z,20.90
2023-04-16T20:53:38.480Z,22.70
2023-04-16T20:56:06.799Z,21.50
2023-04-16T20:58:33.756Z,24.27
2023-04-16T21:01:00.695Z,22.23
2023-04-16T21:03:27.802Z,19.17
2023-04-16T21:05:55.393Z,20.43
2023-04-16T21:08:23.637Z,19.00
2023-04-16T21:10:51.188Z,18.07
2023-04-16T21:13:18.606Z,19.30
2023-04-16T21:15:46.015Z,17.37
2023-04-16T21:18:13.074Z,18.20
2023-04-16T21:20:40.092Z,15.70
2023-04-16T21:23:07.052Z,14.97
2023-04-16T21:25:33.963Z,15.83
2023-04-16T21:28:01.210Z,15.33
2023-04-16T21:30:28.191Z,16.90
2023-04-16T21:32:55.173Z,15.27
2023-04-16T21:35:22.121Z,17.13
2023-04-16T21:37:49.025Z,16.70
2023-04-16T21:40:16.139Z,20.60
2023-04-16T21:42:43.141Z,22.33
2023-04-16T21:45:10.613Z,18.40
2023-04-16T21:47:37.963Z,20.37
2023-04-16T21:50:05.684Z,20.87
2023-04-16T21:52:32.983Z,18.33
2023-04-16T21:55:00.274Z,19.10
2023-04-16T21:57:27.284Z,20.80
2023-04-16T21:59:54.226Z,19.60
2023-04-16T22:02:21.332Z,22.77
2023-04-16T22:04:48.608Z,21.80
2023-04-16T22:07:16.876Z,20.90
2023-04-16T22:09:43.860Z,20.00
2023-04-16T22:12:13.845Z,18.03
2023-04-16T22:14:49.106Z,18.47
2023-04-16T22:17:27.586Z,21.90
2023-04-16T22:19:54.553Z,18.40
2023-04-16T22:22:21.978Z,18.87
2023-04-16T22:24:49.002Z,17.27
2023-04-16T22:27:16.108Z,20.20
2023-04-16T22:29:43.213Z,17.03
2023-04-16T22:32:10.139Z,17.03
2023-04-16T22:34:37.112Z,17.50
2023-04-16T22:37:04.047Z,17.87
2023-04-16T22:39:33.559Z,18.57
2023-04-16T22:42:00.720Z,18.47
2023-04-16T22:44:27.680Z,26.13
2023-04-16T22:46:54.618Z,20.97
2023-04-16T22:49:21.505Z,23.70
2023-04-16T22:51:48.720Z,24.63
2023-04-16T22:54:15.796Z,19.63
2023-04-16T22:56:42.767Z,20.43
2023-04-16T22:59:09.870Z,18.27
2023-04-16T23:01:37.065Z,20.70
2023-04-16T23:04:04.169Z,18.13
2023-04-16T23:06:31.550Z,25.10
2023-04-16T23:08:58.490Z,21.87
2023-04-16T23:11:25.431Z,23.67
2023-04-16T23:13:52.451Z,20.80
2023-04-16T23:16:19.703Z,21.40
2023-04-16T23:18:46.719Z,25.60
2023-04-16T23:21:13.891Z,23.77
2023-04-16T23:23:40.803Z,21.00
2023-04-16T23:26:07.733Z,18.07
2023-04-16T23:28:35.892Z,22.23
2023-04-16T23:31:04.199Z,20.30
2023-04-16T23:33:32.909Z,19.83
2023-04-16T23:35:59.856Z,23.97
2023-04-16T23:38:26.784Z,22.73
2023-04-16T23:40:53.706Z,19.63
2023-04-16T23:43:20.640Z,20.67
2023-04-16T23:45:47.575Z,22.63
2023-04-16T23:48:14.764Z,22.90
2023-04-16T23:50:41.692Z,21.73
2023-04-16T23:53:08.713Z,22.07
2023-04-16T23:55:35.609Z,22.33
2023-04-16T23:58:02.821Z,21.07
